createdAt,value
2019-04-05T00:00:42.901Z,82.61
2019-04-05T00:03:13.103Z,82.59
2019-04-05T00:05:43.452Z,82.55
2019-04-05T00:08:14.039Z,82.52
2019-04-05T00:10:44.613Z,82.57
2019-04-05T00:13:14.961Z,82.59
2019-04-05T00:15:46.062Z,82.58
2019-04-05T00:18:16.486Z,82.56
2019-04-05T00:20:46.658Z,82.56
2019-04-05T00:23:17.119Z,82.56
2019-04-05T00:25:47.574Z,82.57
2019-04-05T00:28:18.039Z,82.60
2019-04-05T00:30:48.547Z,82.65
2019-04-05T00:41:17.422Z,82.82
2019-04-05T00:43:47.786Z,82.85
2019-04-05T00:46:18.101Z,82.79
2019-04-05T00:48:48.344Z,82.70
2019-04-05T00:51:19.106Z,82.73
2019-04-05T00:53:49.746Z,82.79
2019-04-05T00:56:20.478Z,82.85
2019-04-05T00:58:50.707Z,82.82
2019-04-05T01:01:21.177Z,82.85
2019-04-05T01:03:51.394Z,82.88
2019-04-05T01:06:21.792Z,82.89
2019-04-05T01:08:52.189Z,82.91
2019-04-05T01:11:22.629Z,82.99
2019-04-05T01:13:54.015Z,83.04
2019-04-05T01:16:24.439Z,83.09
2019-04-05T01:18:54.866Z,83.07
2019-04-05T01:21:26.776Z,83.10
2019-04-05T01:23:59.933Z,83.14
2019-04-05T01:26:31.702Z,83.09
2019-04-05T01:29:02.052Z,83.06
2019-04-05T01:31:32.480Z,83.10
2019-04-05T01:34:05.420Z,83.11
2019-04-05T01:36:35.031Z,83.14
2019-04-05T01:39:07.794Z,83.10
2019-04-05T01:41:38.390Z,83.08
2019-04-05T01:44:09.173Z,83.09
2019-04-05T01:46:39.745Z,83.06
2019-04-05T01:49:09.993Z,82.99
2019-04-05T01:51:40.429Z,83.03
2019-04-05T01:54:10.890Z,83.09
2019-04-05T01:56:41.146Z,83.13
2019-04-05T01:59:11.592Z,83.15
2019-04-05T02:01:42.016Z,83.15
2019-04-05T02:04:12.244Z,83.20
2019-04-05T02:06:42.849Z,83.26
2019-04-05T02:09:13.628Z,83.28
2019-04-05T02:14:18.966Z,83.33
2019-04-05T02:16:49.731Z,83.47
2019-04-05T02:19:20.142Z,83.52
2019-04-05T02:21:50.501Z,83.56
2019-04-05T02:24:20.950Z,83.63
2019-04-05T02:26:51.278Z,83.66
2019-04-05T02:29:21.633Z,83.68
2019-04-05T02:31:52.192Z,83.68
2019-04-05T02:34:22.528Z,83.70
2019-04-05T02:36:52.832Z,83.72
2019-04-05T02:39:23.364Z,83.75
2019-04-05T02:42:03.605Z,83.74
2019-04-05T02:44:43.063Z,83.73
2019-04-05T02:47:14.557Z,83.74
2019-04-05T02:49:46.256Z,83.76
2019-04-05T02:52:20.265Z,83.79
2019-04-05T02:54:51.828Z,83.83
2019-04-05T02:57:22.837Z,83.87
2019-04-05T02:59:53.724Z,83.91
2019-04-05T03:02:24.382Z,83.92
2019-04-05T03:04:54.659Z,83.95
2019-04-05T03:07:26.403Z,84.01
2019-04-05T03:09:57.467Z,84.02
2019-04-05T03:12:28.153Z,84.00
2019-04-05T03:14:59.228Z,83.93
2019-04-05T03:17:29.728Z,83.92
2019-04-05T03:20:02.687Z,83.94
2019-04-05T03:22:34.386Z,83.96
2019-04-05T03:25:05.232Z,83.99
2019-04-05T03:27:38.427Z,84.04
2019-04-05T03:30:09.817Z,84.09
2019-04-05T03:32:40.126Z,84.08
2019-04-05T03:35:10.581Z,84.14
2019-04-05T03:37:40.867Z,84.18
2019-04-05T03:40:11.485Z,84.20
2019-04-05T03:42:41.916Z,84.26
2019-04-05T03:45:12.608Z,84.26
2019-04-05T03:47:43.052Z,84.29
2019-04-05T03:50:13.654Z,84.30
2019-04-05T03:52:44.247Z,84.30
2019-04-05T03:55:14.814Z,84.28
2019-04-05T03:57:45.045Z,84.28
2019-04-05T04:00:15.598Z,84.31
2019-04-05T04:02:45.835Z,84.33
2019-04-05T04:05:16.059Z,84.31
2019-04-05T04:07:46.323Z,84.34
2019-04-05T04:10:22.633Z,84.32
2019-04-05T04:12:53.090Z,84.33
2019-04-05T04:15:23.872Z,84.32
2019-04-05T04:17:54.254Z,84.31
2019-04-05T04:20:45.376Z,84.36
2019-04-05T04:23:16.233Z,84.38
2019-04-05T04:25:52.377Z,84.42
2019-04-05T04:28:22.856Z,84.37
2019-04-05T04:30:53.347Z,84.43
2019-04-05T04:33:23.652Z,84.48
2019-04-05T04:35:54.628Z,84.48
2019-04-05T04:38:25.323Z,84.43
2019-04-05T04:40:56.335Z,84.44
2019-04-05T04:43:27.158Z,84.48
2019-04-05T04:45:57.445Z,84.50
2019-04-05T04:48:29.191Z,84.22
2019-04-05T04:51:00.026Z,84.47
2019-04-05T04:53:30.509Z,84.62
2019-04-05T04:56:00.721Z,84.68
2019-04-05T04:58:31.101Z,84.71
2019-04-05T05:01:01.406Z,84.64
2019-04-05T05:03:32.051Z,84.60
2019-04-05T05:06:08.250Z,84.63
2019-04-05T05:08:38.450Z,84.62
2019-04-05T05:11:14.686Z,84.65
2019-04-05T05:13:41.367Z,84.66
2019-04-05T05:16:11.668Z,84.62
2019-04-05T05:18:42.045Z,84.62
2019-04-05T05:21:12.242Z,84.63
2019-04-05T05:23:42.550Z,84.61
2019-04-05T05:26:12.874Z,84.58
2019-04-05T05:28:43.410Z,84.55
2019-04-05T05:31:13.870Z,84.55
2019-04-05T05:33:44.491Z,84.60
2019-04-05T05:36:14.941Z,84.62
2019-04-05T05:38:45.506Z,84.62
2019-04-05T05:41:15.968Z,84.56
2019-04-05T05:43:46.330Z,84.60
2019-04-05T05:46:16.611Z,84.62
2019-04-05T05:48:46.939Z,84.56
2019-04-05T05:51:17.924Z,84.55
2019-04-05T05:53:48.101Z,84.59
2019-04-05T05:56:18.354Z,84.61
2019-04-05T05:58:48.745Z,84.64
2019-04-05T06:01:19.055Z,84.58
2019-04-05T06:03:49.266Z,84.58
2019-04-05T06:06:19.534Z,84.60
2019-04-05T06:08:49.590Z,84.59
2019-04-05T06:11:19.732Z,84.67
2019-04-05T06:13:49.914Z,84.67
2019-04-05T06:16:20.168Z,84.69
2019-04-05T06:18:50.346Z,84.67
2019-04-05T06:21:20.477Z,84.74
2019-04-05T06:23:50.645Z,84.73
2019-04-05T06:26:20.776Z,84.62
2019-04-05T06:28:51.120Z,84.59
2019-04-05T06:31:21.319Z,84.66
2019-04-05T06:33:51.403Z,84.68
2019-04-05T06:36:21.604Z,84.67
2019-04-05T06:38:51.665Z,84.66
2019-04-05T06:41:21.795Z,84.68
2019-04-05T06:43:51.870Z,84.76
2019-04-05T06:46:21.935Z,84.74
2019-04-05T06:48:52.071Z,84.72
2019-04-05T06:51:22.269Z,84.84
2019-04-05T06:53:52.397Z,84.87
2019-04-05T06:56:22.503Z,84.84
2019-04-05T06:58:52.724Z,84.80
2019-04-05T07:01:22.834Z,84.79
2019-04-05T07:03:55.254Z,84.67
2019-04-05T07:06:24.697Z,84.65
2019-04-05T07:08:54.913Z,84.58
2019-04-05T07:11:25.149Z,84.50
2019-04-05T07:13:55.291Z,84.38
2019-04-05T07:16:25.603Z,84.37
2019-04-05T07:18:55.656Z,84.45
2019-04-05T07:21:25.828Z,84.44
2019-04-05T07:23:55.902Z,84.19
2019-04-05T07:26:26.166Z,84.10
2019-04-05T07:28:56.305Z,83.99
2019-04-05T07:31:26.607Z,83.98
2019-04-05T07:33:56.807Z,83.95
2019-04-05T07:36:26.901Z,83.92
2019-04-05T07:38:57.074Z,83.94
2019-04-05T07:41:27.565Z,83.99
2019-04-05T07:43:57.793Z,83.79
2019-04-05T07:46:27.935Z,83.89
2019-04-05T07:48:58.107Z,83.87
2019-04-05T07:51:28.355Z,83.72
2019-04-05T07:53:58.551Z,83.64
2019-04-05T07:56:28.757Z,83.70
2019-04-05T07:58:58.899Z,83.57
2019-04-05T08:01:29.118Z,83.42
2019-04-05T08:03:59.361Z,83.23
2019-04-05T08:06:30.454Z,83.01
2019-04-05T08:09:10.998Z,82.85
2019-04-05T08:11:44.105Z,82.75
2019-04-05T08:14:17.830Z,82.75
2019-04-05T08:16:47.420Z,82.65
2019-04-05T08:19:17.723Z,82.54
2019-04-05T08:21:47.913Z,82.64
2019-04-05T08:24:18.157Z,82.68
2019-04-05T08:26:48.343Z,82.64
2019-04-05T08:29:18.507Z,82.56
2019-04-05T08:31:48.666Z,82.48
2019-04-05T08:34:18.972Z,82.62
2019-04-05T08:36:49.243Z,82.45
2019-04-05T08:39:19.448Z,82.14
2019-04-05T08:41:49.576Z,82.08
2019-04-05T08:44:19.904Z,81.92
2019-04-05T08:46:50.070Z,81.76
2019-04-05T08:49:20.176Z,81.66
2019-04-05T08:51:50.225Z,81.60
2019-04-05T08:54:31.936Z,81.67
2019-04-05T08:56:52.409Z,81.64
2019-04-05T08:59:22.550Z,81.54
2019-04-05T09:01:52.817Z,81.34
2019-04-05T09:04:23.110Z,81.39
2019-04-05T09:06:53.318Z,81.15
2019-04-05T09:09:24.776Z,81.02
2019-04-05T09:11:55.064Z,81.12
2019-04-05T09:14:25.168Z,81.02
2019-04-05T09:16:55.312Z,80.86
2019-04-05T09:19:25.459Z,80.78
2019-04-05T09:21:55.775Z,80.76
2019-04-05T09:24:25.873Z,80.55
2019-04-05T09:26:56.018Z,80.44
2019-04-05T09:29:26.299Z,80.30
2019-04-05T09:31:56.442Z,80.35
2019-04-05T09:34:26.647Z,80.05
2019-04-05T09:36:56.749Z,79.75
2019-04-05T09:39:26.915Z,79.51
2019-04-05T09:41:56.982Z,79.72
2019-04-05T09:44:27.560Z,79.83
2019-04-05T09:46:57.778Z,79.78
2019-04-05T09:49:36.709Z,79.53
2019-04-05T09:52:04.396Z,79.24
2019-04-05T09:54:34.510Z,79.32
2019-04-05T09:57:04.689Z,79.23
2019-04-05T09:59:34.885Z,79.14
2019-04-05T10:02:05.104Z,78.93
2019-04-05T10:04:35.224Z,78.70
2019-04-05T10:07:05.720Z,78.64
2019-04-05T10:09:35.901Z,78.45
2019-04-05T10:12:06.928Z,78.11
2019-04-05T10:14:37.133Z,77.67
2019-04-05T10:19:49.810Z,76.48
2019-04-05T10:22:14.825Z,76.41
2019-04-05T10:24:44.893Z,76.44
2019-04-05T10:27:15.129Z,76.42
2019-04-05T10:29:45.207Z,76.43
2019-04-05T10:32:15.501Z,76.18
2019-04-05T10:34:45.744Z,75.67
2019-04-05T10:37:15.852Z,75.22
2019-04-05T10:39:45.998Z,74.98
2019-04-05T10:42:30.955Z,74.77
2019-04-05T10:45:01.295Z,74.85
2019-04-05T10:47:31.566Z,74.82
2019-04-05T10:50:03.237Z,75.11
2019-04-05T10:52:33.887Z,75.11
2019-04-05T10:55:04.305Z,75.07
2019-04-05T10:57:34.533Z,74.78
2019-04-05T11:00:06.577Z,74.63
2019-04-05T11:02:36.709Z,74.21
2019-04-05T11:05:07.187Z,74.00
2019-04-05T11:07:37.462Z,73.94
2019-04-05T11:10:08.475Z,73.90
2019-04-05T11:12:38.666Z,73.97
2019-04-05T11:15:09.539Z,74.14
2019-04-05T11:17:41.509Z,74.43
2019-04-05T11:20:21.317Z,74.28
2019-04-05T11:22:46.675Z,74.09
2019-04-05T11:25:20.494Z,73.81
2019-04-05T11:27:49.382Z,73.42
2019-04-05T11:30:42.076Z,73.48
2019-04-05T11:33:12.698Z,73.59
2019-04-05T11:35:42.996Z,72.79
2019-04-05T11:38:14.947Z,73.26
2019-04-05T11:40:46.127Z,73.49
2019-04-05T11:43:17.695Z,73.56
2019-04-05T11:45:48.672Z,73.53
2019-04-05T11:48:20.112Z,73.49
2019-04-05T11:50:50.377Z,73.65
2019-04-05T11:53:22.130Z,73.58
2019-04-05T11:55:52.361Z,73.47
2019-04-05T11:58:22.701Z,73.49
2019-04-05T12:00:59.999Z,73.58
2019-04-05T12:03:30.524Z,73.45
2019-04-05T12:06:00.739Z,73.38
2019-04-05T12:08:30.883Z,73.26
2019-04-05T12:11:01.078Z,73.12
2019-04-05T12:13:31.227Z,73.20
2019-04-05T12:16:01.492Z,73.29
2019-04-05T12:18:34.415Z,73.41
2019-04-05T12:21:05.749Z,73.55
2019-04-05T12:23:35.455Z,73.55
2019-04-05T12:26:06.956Z,73.60
2019-04-05T12:28:37.174Z,73.42
2019-04-05T12:31:07.415Z,73.22
2019-04-05T12:33:39.294Z,73.15
2019-04-05T12:36:09.679Z,72.84
2019-04-05T12:38:40.302Z,72.77
2019-04-05T12:41:11.498Z,72.83
2019-04-05T12:43:44.595Z,72.98
2019-04-05T12:46:15.909Z,73.21
2019-04-05T12:48:46.618Z,73.48
2019-04-05T12:51:17.276Z,73.64
2019-04-05T12:53:47.587Z,73.65
2019-04-05T12:56:18.137Z,73.56
2019-04-05T12:58:48.398Z,73.25
2019-04-05T13:01:20.195Z,72.96
2019-04-05T13:03:51.395Z,73.04
2019-04-05T13:06:22.649Z,73.05
2019-04-05T13:08:53.905Z,72.76
2019-04-05T13:11:26.769Z,72.71
2019-04-05T13:13:57.004Z,72.43
2019-04-05T13:16:27.569Z,71.89
2019-04-05T13:19:00.560Z,71.35
2019-04-05T13:21:32.103Z,70.79
2019-04-05T13:24:04.163Z,70.53
2019-04-05T13:26:36.597Z,70.07
2019-04-05T13:29:07.012Z,70.13
2019-04-05T13:31:37.281Z,70.36
2019-04-05T13:34:07.756Z,70.50
2019-04-05T13:36:37.904Z,70.48
2019-04-05T13:39:11.729Z,69.89
2019-04-05T13:41:41.953Z,69.67
2019-04-05T13:44:12.237Z,69.69
2019-04-05T13:46:43.007Z,69.75
2019-04-05T13:49:13.452Z,69.85
2019-04-05T13:51:43.764Z,69.99
2019-04-05T13:54:14.040Z,70.43
2019-04-05T13:56:44.273Z,70.38
2019-04-05T13:59:14.696Z,70.23
2019-04-05T14:01:44.921Z,69.92
2019-04-05T14:04:17.020Z,70.03
2019-04-05T14:06:47.161Z,70.13
2019-04-05T14:09:17.614Z,70.37
2019-04-05T14:11:47.735Z,70.53
2019-04-05T14:14:17.991Z,70.50
2019-04-05T14:16:48.197Z,70.70
2019-04-05T14:19:19.353Z,70.81
2019-04-05T14:21:52.693Z,70.88
2019-04-05T14:24:23.379Z,71.10
2019-04-05T14:26:53.464Z,71.25
2019-04-05T14:29:23.787Z,71.49
2019-04-05T14:31:53.944Z,71.76
2019-04-05T14:34:24.572Z,71.71
2019-04-05T14:36:54.839Z,71.75
2019-04-05T14:39:25.058Z,71.76
2019-04-05T14:41:55.219Z,71.78
2019-04-05T14:44:25.451Z,71.62
2019-04-05T14:46:57.796Z,71.68
2019-04-05T14:49:30.270Z,71.74
2019-04-05T14:52:01.237Z,72.04
2019-04-05T14:54:31.379Z,72.30
2019-04-05T14:57:05.453Z,72.32
2019-04-05T14:59:33.727Z,72.25
2019-04-05T15:02:04.134Z,72.35
2019-04-05T15:04:34.259Z,72.43
2019-04-05T15:07:04.605Z,72.54
2019-04-05T15:09:34.858Z,72.55
2019-04-05T15:12:05.740Z,72.53
2019-04-05T15:14:36.403Z,72.52
2019-04-05T15:17:07.400Z,72.53
2019-04-05T15:19:37.934Z,72.55
2019-04-05T15:22:10.873Z,72.64
2019-04-05T15:24:40.743Z,72.73
2019-04-05T15:29:55.810Z,72.97
2019-04-05T15:32:28.089Z,72.96
2019-04-05T15:34:58.993Z,72.99
2019-04-05T15:37:32.474Z,73.06
2019-04-05T15:40:02.049Z,73.07
2019-04-05T15:42:32.588Z,73.27
2019-04-05T15:45:03.302Z,73.37
2019-04-05T15:47:33.812Z,73.52
2019-04-05T15:50:04.445Z,73.55
2019-04-05T15:52:34.868Z,73.55
2019-04-05T15:55:05.747Z,73.54
2019-04-05T15:57:39.195Z,73.57
2019-04-05T16:00:10.751Z,73.64
2019-04-05T16:02:43.101Z,73.70
2019-04-05T16:05:14.887Z,73.72
2019-04-05T16:07:47.938Z,73.75
2019-04-05T16:10:18.620Z,73.88
2019-04-05T16:12:48.868Z,73.94
2019-04-05T16:15:19.192Z,74.10
2019-04-05T16:17:49.366Z,74.26
2019-04-05T16:20:19.936Z,74.05
2019-04-05T16:22:50.191Z,74.28
2019-04-05T16:25:20.531Z,74.31
2019-04-05T16:27:50.817Z,74.24
2019-04-05T16:30:21.750Z,74.25
2019-04-05T16:32:51.964Z,74.24
2019-04-05T16:35:22.120Z,74.21
2019-04-05T16:37:52.276Z,74.21
2019-04-05T16:40:22.510Z,74.29
2019-04-05T16:43:02.330Z,74.42
2019-04-05T16:45:24.674Z,74.45
2019-04-05T16:47:54.936Z,74.60
2019-04-05T16:50:25.244Z,74.64
2019-04-05T16:52:55.890Z,74.75
2019-04-05T16:55:26.078Z,74.86
2019-04-05T16:57:56.132Z,74.95
2019-04-05T17:00:26.351Z,75.04
2019-04-05T17:02:56.494Z,75.05
2019-04-05T17:05:26.614Z,75.05
2019-04-05T17:07:56.818Z,75.08
2019-04-05T17:10:27.110Z,75.16
2019-04-05T17:12:57.381Z,75.18
2019-04-05T17:15:27.607Z,75.25
2019-04-05T17:17:57.826Z,75.37
2019-04-05T17:20:28.090Z,75.48
2019-04-05T17:22:58.855Z,75.53
2019-04-05T17:25:29.065Z,75.56
2019-04-05T17:27:59.368Z,75.64
2019-04-05T17:30:29.726Z,75.70
2019-04-05T17:32:59.975Z,75.74
2019-04-05T17:35:30.236Z,75.86
2019-04-05T17:38:00.463Z,76.04
2019-04-05T17:40:30.702Z,76.06
2019-04-05T17:43:00.876Z,76.12
2019-04-05T17:45:31.159Z,76.24
2019-04-05T17:48:03.354Z,76.29
2019-04-05T17:50:35.639Z,76.35
2019-04-05T17:53:12.867Z,76.47
2019-04-05T17:55:38.575Z,76.59
2019-04-05T17:58:09.339Z,76.64
2019-04-05T18:00:39.930Z,76.74
2019-04-05T18:03:10.465Z,76.85
2019-04-05T18:05:41.016Z,76.92
2019-04-05T18:08:11.496Z,77.06
2019-04-05T18:13:08.277Z,77.20
2019-04-05T18:15:46.692Z,77.29
2019-04-05T18:18:10.983Z,77.30
2019-04-05T18:20:41.608Z,77.28
2019-04-05T18:23:24.414Z,77.32
2019-04-05T18:25:44.327Z,77.33
2019-04-05T18:28:14.833Z,77.34
2019-04-05T18:30:45.336Z,77.39
2019-04-05T18:33:15.823Z,77.42
2019-04-05T18:35:46.420Z,77.47
2019-04-05T18:38:16.971Z,77.49
2019-04-05T18:40:47.483Z,77.47
2019-04-05T18:43:18.010Z,77.53
2019-04-05T18:45:48.537Z,77.55
2019-04-05T18:48:18.979Z,77.55
2019-04-05T18:50:49.503Z,77.58
2019-04-05T18:53:20.103Z,77.63
2019-04-05T18:55:50.669Z,77.66
2019-04-05T18:58:21.173Z,77.69
2019-04-05T19:00:51.713Z,77.70
2019-04-05T19:03:22.238Z,77.72
2019-04-05T19:05:52.794Z,77.69
2019-04-05T19:08:23.222Z,77.67
2019-04-05T19:10:53.738Z,77.67
2019-04-05T19:13:24.262Z,77.73
2019-04-05T19:15:54.777Z,77.73
2019-04-05T19:18:25.233Z,77.74
2019-04-05T19:23:50.000Z,77.70
2019-04-05T19:26:10.037Z,77.76
2019-04-05T19:28:40.547Z,77.79
2019-04-05T19:48:56.429Z,77.79
2019-04-05T19:51:27.390Z,77.76
2019-04-05T19:54:01.562Z,77.75
2019-04-05T19:59:17.982Z,77.57
2019-04-05T20:01:48.538Z,77.72
2019-04-05T20:04:18.968Z,77.85
2019-04-05T20:06:58.077Z,77.87
2019-04-05T20:09:22.003Z,77.89
2019-04-05T20:11:52.608Z,77.88
2019-04-05T20:14:23.191Z,77.89
2019-04-05T20:16:53.680Z,77.91
2019-04-05T20:19:24.675Z,77.95
2019-04-05T20:21:55.126Z,77.89
2019-04-05T20:24:25.645Z,77.87
2019-04-05T20:26:56.080Z,77.91
2019-04-05T20:29:26.646Z,77.89
2019-04-05T20:31:57.241Z,77.84
2019-04-05T20:34:27.756Z,77.83
2019-04-05T20:36:58.293Z,77.88
2019-04-05T20:39:28.750Z,77.91
2019-04-05T20:41:59.398Z,77.93
2019-04-05T20:44:29.916Z,77.98
2019-04-05T20:47:00.448Z,78.04
2019-04-05T20:49:31.159Z,78.08
2019-04-05T20:52:01.605Z,78.14
2019-04-05T20:54:32.298Z,78.18
2019-04-05T20:57:02.728Z,78.19
2019-04-05T20:59:33.326Z,78.22
2019-04-05T21:02:03.939Z,77.92
2019-04-05T21:04:34.469Z,78.10
2019-04-05T21:07:04.886Z,78.15
2019-04-05T21:09:35.570Z,78.11
2019-04-05T21:12:07.052Z,78.12
2019-04-05T21:14:37.696Z,78.14
2019-04-05T21:17:08.193Z,78.09
2019-04-05T21:19:38.829Z,78.09
2019-04-05T21:22:09.378Z,78.09
2019-04-05T21:24:39.964Z,78.07
2019-04-05T21:27:12.575Z,77.30
2019-04-05T21:29:43.101Z,77.62
2019-04-05T21:32:13.574Z,77.78
2019-04-05T21:34:44.157Z,77.82
2019-04-05T21:37:15.024Z,77.81
2019-04-05T21:39:45.633Z,77.85
2019-04-05T21:42:16.196Z,77.84
2019-04-05T21:44:47.044Z,77.85
2019-04-05T21:47:17.878Z,77.83
2019-04-05T21:49:48.476Z,77.93
2019-04-05T21:52:19.780Z,77.98
2019-04-05T21:54:51.135Z,78.06
2019-04-05T21:57:21.808Z,78.13
2019-04-05T21:59:52.420Z,78.20
2019-04-05T22:02:23.193Z,78.22
2019-04-05T22:04:53.569Z,78.28
2019-04-05T22:07:23.683Z,78.35
2019-04-05T22:09:54.124Z,78.47
2019-04-05T22:15:13.888Z,78.62
2019-04-05T22:17:44.642Z,78.72
2019-04-05T22:20:15.199Z,78.78
2019-04-05T22:22:45.365Z,78.81
2019-04-05T22:25:15.750Z,78.85
2019-04-05T22:27:46.485Z,78.92
2019-04-05T22:30:17.203Z,78.98
2019-04-05T22:32:47.461Z,79.02
2019-04-05T22:35:17.755Z,79.00
2019-04-05T22:37:48.033Z,79.04
2019-04-05T22:40:18.347Z,79.07
2019-04-05T22:42:48.709Z,79.07
2019-04-05T22:45:19.079Z,79.15
2019-04-05T22:47:49.324Z,79.14
2019-04-05T22:50:19.785Z,79.16
2019-04-05T22:52:50.157Z,79.16
2019-04-05T22:55:20.458Z,79.20
2019-04-05T22:57:50.791Z,79.26
2019-04-05T23:00:21.149Z,79.33
2019-04-05T23:02:51.281Z,79.42
2019-04-05T23:05:21.775Z,79.50
2019-04-05T23:07:51.999Z,79.61
2019-04-05T23:10:22.288Z,79.67
2019-04-05T23:12:52.597Z,79.70
2019-04-05T23:15:22.903Z,79.69
2019-04-05T23:17:53.201Z,79.73
2019-04-05T23:20:23.478Z,79.79
2019-04-05T23:22:53.778Z,79.79
2019-04-05T23:25:24.087Z,79.78
2019-04-05T23:27:54.410Z,79.80
2019-04-05T23:30:26.515Z,79.83
2019-04-05T23:32:59.997Z,79.87
2019-04-05T23:35:30.299Z,79.90
2019-04-05T23:38:00.658Z,79.96
2019-04-05T23:40:30.967Z,80.00
2019-04-05T23:43:01.184Z,80.07
2019-04-05T23:45:31.501Z,80.12
2019-04-05T23:48:01.812Z,80.14
2019-04-05T23:50:32.179Z,80.15
2019-04-05T23:53:02.845Z,80.19
2019-04-05T23:55:33.869Z,80.23
2019-04-05T23:58:04.637Z,80.25
